Time;durP1;ratioP1;P1;durP2;ratioP2;P2;SDS_P1;SDS_P2;PMS_P1;PMS_P2;Temp;Humidity;BMP_temperature;BMP_pressure;BME280_temperature;BME280_humidity;BME280_pressure;Samples;Min_cycle;Max_cycle;Signal;HPM_P1;HPM_P2
2023/08/16 00:00:45;;;;;;;3.40;1.90;;;;;;;;;;5030983;28;20482;-81
2023/08/16 00:03:12;;;;;;;5.57;2.30;;;;;;;;;;5030583;28;20506;-82
2023/08/16 00:05:42;;;;;;;7.03;2.00;;;;;;;;;;5031004;28;20827;-81
2023/08/16 00:08:09;;;;;;;3.80;1.57;;;;;;;;;;5029645;28;20427;-80
2023/08/16 00:10:37;;;;;;;7.20;2.17;;;;;;;;;;5026605;28;20452;-83
2023/08/16 00:13:04;;;;;;;5.70;2.20;;;;;;;;;;5030703;28;20491;-80
2023/08/16 00:15:33;;;;;;;5.63;2.40;;;;;;;;;;5031574;28;20498;-83
2023/08/16 00:18:01;;;;;;;10.60;2.13;;;;;;;;;;5030710;28;20886;-83
2023/08/16 00:20:28;;;;;;;4.80;1.87;;;;;;;;;;5028503;28;20462;-83
2023/08/16 00:22:56;;;;;;;5.03;2.30;;;;;;;;;;5025802;28;20617;-83
2023/08/16 00:25:23;;;;;;;6.57;1.80;;;;;;;;;;5022508;28;20486;-82
2023/08/16 00:27:51;;;;;;;5.40;2.53;;;;;;;;;;5023895;28;20659;-82
2023/08/16 00:30:18;;;;;;;14.83;2.90;;;;;;;;;;5026290;28;20455;-81
2023/08/16 00:32:47;;;;;;;3.73;1.93;;;;;;;;;;5029997;28;20487;-81
2023/08/16 00:35:15;;;;;;;4.90;2.27;;;;;;;;;;5032502;28;20447;-81
2023/08/16 00:37:45;;;;;;;11.23;2.73;;;;;;;;;;5029118;28;20463;-80
2023/08/16 00:40:17;;;;;;;4.17;2.00;;;;;;;;;;5030599;28;20455;-81
2023/08/16 00:42:44;;;;;;;5.83;2.10;;;;;;;;;;5022111;28;20481;-80
2023/08/16 00:45:15;;;;;;;3.83;2.10;;;;;;;;;;5023441;28;20790;-83
2023/08/16 00:47:44;;;;;;;6.13;2.20;;;;;;;;;;5023420;28;20455;-82
2023/08/16 00:50:16;;;;;;;6.60;2.40;;;;;;;;;;5026288;28;20466;-79
2023/08/16 00:52:44;;;;;;;3.43;2.90;;;;;;;;;;5027681;28;20487;-82
2023/08/16 00:55:11;;;;;;;5.77;2.60;;;;;;;;;;5029971;28;20455;-81
2023/08/16 00:57:39;;;;;;;9.10;2.40;;;;;;;;;;5030265;28;20450;-82
2023/08/16 01:00:07;;;;;;;5.03;2.10;;;;;;;;;;5028128;28;20462;-82
2023/08/16 01:02:34;;;;;;;4.53;2.00;;;;;;;;;;5031909;28;20452;-82
2023/08/16 01:05:02;;;;;;;4.50;2.20;;;;;;;;;;5029028;28;20462;-80
2023/08/16 01:07:31;;;;;;;6.20;2.60;;;;;;;;;;5029824;28;20479;-83
2023/08/16 01:09:58;;;;;;;4.27;2.17;;;;;;;;;;5030775;28;20451;-80
2023/08/16 01:12:32;;;;;;;8.60;2.00;;;;;;;;;;5030332;28;20603;-82
2023/08/16 01:15:02;;;;;;;4.80;2.70;;;;;;;;;;5030456;28;20689;-83
2023/08/16 01:17:30;;;;;;;4.03;2.13;;;;;;;;;;5029327;28;20514;-83
2023/08/16 01:19:59;;;;;;;8.77;3.20;;;;;;;;;;5030424;28;20459;-82
2023/08/16 01:22:31;;;;;;;4.27;2.03;;;;;;;;;;5022018;28;20459;-81
2023/08/16 01:25:11;;;;;;;5.07;2.13;;;;;;;;;;5022043;28;20467;-82
2023/08/16 01:27:40;;;;;;;8.73;2.83;;;;;;;;;;5021794;28;20461;-83
2023/08/16 01:30:08;;;;;;;4.10;1.67;;;;;;;;;;5025833;28;20480;-80
2023/08/16 01:32:36;;;;;;;4.20;2.30;;;;;;;;;;5026633;28;20521;-82
2023/08/16 01:35:04;;;;;;;6.10;2.33;;;;;;;;;;5027768;28;20549;-81
2023/08/16 01:37:32;;;;;;;4.47;2.13;;;;;;;;;;5024919;28;20664;-82
2023/08/16 01:40:08;;;;;;;4.07;2.00;;;;;;;;;;5026136;28;20534;-81
2023/08/16 01:42:38;;;;;;;6.70;2.43;;;;;;;;;;5029050;28;20478;-82
2023/08/16 01:45:10;;;;;;;4.90;1.93;;;;;;;;;;5023407;28;20464;-81
2023/08/16 01:47:38;;;;;;;8.90;2.73;;;;;;;;;;5021797;28;20488;-81
2023/08/16 01:50:09;;;;;;;7.43;2.20;;;;;;;;;;5022823;28;20570;-83
2023/08/16 01:52:37;;;;;;;10.07;2.10;;;;;;;;;;5028291;28;20491;-81
2023/08/16 01:55:05;;;;;;;5.83;2.70;;;;;;;;;;5028621;28;20470;-79
2023/08/16 01:57:32;;;;;;;6.90;2.70;;;;;;;;;;5022998;28;20459;-81
2023/08/16 02:00:00;;;;;;;6.90;2.43;;;;;;;;;;5020616;28;20455;-80
2023/08/16 02:02:29;;;;;;;3.20;1.80;;;;;;;;;;5026025;28;20452;-80
2023/08/16 02:04:56;;;;;;;4.37;2.20;;;;;;;;;;5029279;28;20427;-81
2023/08/16 02:07:24;;;;;;;5.10;2.13;;;;;;;;;;5025180;28;20530;-79
2023/08/16 02:09:52;;;;;;;3.60;2.23;;;;;;;;;;5027673;28;20509;-81
2023/08/16 02:12:24;;;;;;;7.63;2.77;;;;;;;;;;5029527;28;20802;-80
2023/08/16 02:14:52;;;;;;;6.63;2.40;;;;;;;;;;5026143;28;20483;-82
2023/08/16 02:17:20;;;;;;;3.43;1.80;;;;;;;;;;5028533;28;20455;-80
2023/08/16 02:19:50;;;;;;;5.90;2.30;;;;;;;;;;5027294;28;20459;-81
2023/08/16 02:22:17;;;;;;;3.30;1.93;;;;;;;;;;5030055;28;20529;-81
2023/08/16 02:24:46;;;;;;;4.57;2.00;;;;;;;;;;5030916;28;20454;-81
2023/08/16 02:27:14;;;;;;;8.33;2.10;;;;;;;;;;5029478;28;20506;-79
2023/08/16 02:29:41;;;;;;;6.20;2.40;;;;;;;;;;5027447;28;20538;-80
2023/08/16 02:32:09;;;;;;;5.57;2.87;;;;;;;;;;5027482;28;20490;-81
2023/08/16 02:34:37;;;;;;;4.23;2.00;;;;;;;;;;5027415;28;20538;-82
2023/08/16 02:37:06;;;;;;;5.03;2.13;;;;;;;;;;5025244;28;20454;-83
2023/08/16 02:39:34;;;;;;;4.87;2.57;;;;;;;;;;5027452;28;20443;-83
2023/08/16 02:42:01;;;;;;;5.20;2.20;;;;;;;;;;5029127;28;20451;-80
2023/08/16 02:44:29;;;;;;;6.00;2.73;;;;;;;;;;5033003;28;20462;-82
2023/08/16 02:46:57;;;;;;;4.37;2.27;;;;;;;;;;5033394;28;20448;-80
2023/08/16 02:49:24;;;;;;;4.13;2.10;;;;;;;;;;5025402;28;20459;-82
2023/08/16 02:51:52;;;;;;;5.70;2.50;;;;;;;;;;5028501;28;20451;-82
2023/08/16 02:54:21;;;;;;;5.93;2.07;;;;;;;;;;5029222;28;20447;-82
2023/08/16 02:56:48;;;;;;;7.57;2.77;;;;;;;;;;5029602;28;20438;-83
2023/08/16 02:59:17;;;;;;;4.63;2.10;;;;;;;;;;5034537;28;20459;-79
2023/08/16 03:01:44;;;;;;;9.00;2.90;;;;;;;;;;5032369;28;20458;-81
2023/08/16 03:04:12;;;;;;;5.00;2.37;;;;;;;;;;5034759;28;20483;-81
2023/08/16 03:06:40;;;;;;;9.03;2.10;;;;;;;;;;5031488;28;20554;-82
2023/08/16 03:09:07;;;;;;;4.83;2.23;;;;;;;;;;5033184;28;20439;-83
2023/08/16 03:11:36;;;;;;;7.90;2.90;;;;;;;;;;5028102;28;20447;-83
2023/08/16 03:14:04;;;;;;;5.23;2.50;;;;;;;;;;5029605;28;20501;-81
2023/08/16 03:16:31;;;;;;;4.53;2.27;;;;;;;;;;5024750;28;20443;-83
2023/08/16 03:19:00;;;;;;;3.70;2.30;;;;;;;;;;5026560;28;20509;-84
2023/08/16 03:21:27;;;;;;;8.17;2.80;;;;;;;;;;5028531;28;20439;-83
2023/08/16 03:23:55;;;;;;;5.10;2.90;;;;;;;;;;5034312;28;20435;-81
2023/08/16 03:26:23;;;;;;;5.00;2.80;;;;;;;;;;5032452;28;20459;-81
2023/08/16 03:28:52;;;;;;;7.00;2.70;;;;;;;;;;5031742;28;20540;-82
2023/08/16 03:31:20;;;;;;;4.00;2.47;;;;;;;;;;5032931;28;20545;-82
2023/08/16 03:33:47;;;;;;;4.73;2.93;;;;;;;;;;5031653;28;20737;-83
2023/08/16 03:36:15;;;;;;;7.07;4.80;;;;;;;;;;5029715;28;20474;-80
2023/08/16 03:38:42;;;;;;;6.03;2.90;;;;;;;;;;5032799;28;20546;-83
2023/08/16 03:41:11;;;;;;;10.30;3.40;;;;;;;;;;5033024;28;20459;-82
2023/08/16 03:43:38;;;;;;;5.67;2.43;;;;;;;;;;5029715;28;20447;-82
2023/08/16 03:46:07;;;;;;;3.93;2.90;;;;;;;;;;5030566;28;20471;-83
2023/08/16 03:48:35;;;;;;;5.47;2.40;;;;;;;;;;5031378;28;20450;-82
2023/08/16 03:51:02;;;;;;;6.00;3.17;;;;;;;;;;5029128;28;20554;-80
2023/08/16 03:53:30;;;;;;;9.17;3.63;;;;;;;;;;5024080;28;20835;-81
2023/08/16 03:55:58;;;;;;;7.90;3.80;;;;;;;;;;5032308;28;20523;-80
2023/08/16 03:58:25;;;;;;;7.90;2.60;;;;;;;;;;5029671;28;20718;-82
2023/08/16 04:00:53;;;;;;;7.90;3.57;;;;;;;;;;5030203;28;20685;-83
2023/08/16 04:03:22;;;;;;;8.60;3.10;;;;;;;;;;5023747;28;20474;-81
2023/08/16 04:05:51;;;;;;;3.80;2.50;;;;;;;;;;5032199;28;20482;-80
2023/08/16 04:08:21;;;;;;;5.60;2.60;;;;;;;;;;5025761;28;20470;-82
2023/08/16 04:10:49;;;;;;;4.27;2.73;;;;;;;;;;5025496;28;20463;-80
2023/08/16 04:13:16;;;;;;;6.07;3.27;;;;;;;;;;5029389;28;20535;-83
2023/08/16 04:15:44;;;;;;;5.93;3.17;;;;;;;;;;5022542;28;20518;-81
2023/08/16 04:18:11;;;;;;;8.53;3.33;;;;;;;;;;5022545;28;20749;-81
2023/08/16 04:20:40;;;;;;;6.23;3.00;;;;;;;;;;5021442;28;20482;-81
2023/08/16 04:23:08;;;;;;;4.30;3.10;;;;;;;;;;5025946;28;20451;-82
2023/08/16 04:25:36;;;;;;;4.67;2.90;;;;;;;;;;5025875;28;20459;-83
2023/08/16 04:28:03;;;;;;;6.70;3.60;;;;;;;;;;5025087;28;20455;-82
2023/08/16 04:30:31;;;;;;;10.93;3.33;;;;;;;;;;5024850;28;20494;-82
2023/08/16 04:32:59;;;;;;;8.60;3.33;;;;;;;;;;5026332;28;20483;-79
2023/08/16 04:35:26;;;;;;;7.50;3.50;;;;;;;;;;5025154;28;20550;-80
2023/08/16 04:37:56;;;;;;;5.50;3.30;;;;;;;;;;5025857;28;20489;-80
2023/08/16 04:40:23;;;;;;;8.63;3.23;;;;;;;;;;5030171;28;20542;-84
2023/08/16 04:42:50;;;;;;;8.10;3.00;;;;;;;;;;5025941;28;20509;-81
2023/08/16 04:45:18;;;;;;;8.50;3.33;;;;;;;;;;5026773;28;20518;-81
2023/08/16 04:47:46;;;;;;;7.47;3.20;;;;;;;;;;5029354;28;20447;-83
2023/08/16 04:50:20;;;;;;;5.07;3.07;;;;;;;;;;5027869;28;20474;-80
2023/08/16 04:52:48;;;;;;;8.17;3.77;;;;;;;;;;5027684;28;20518;-81
2023/08/16 04:55:17;;;;;;;7.37;2.90;;;;;;;;;;5024723;28;20541;-80
2023/08/16 04:57:45;;;;;;;5.70;2.80;;;;;;;;;;5028193;28;20551;-80
2023/08/16 05:00:16;;;;;;;5.87;2.67;;;;;;;;;;5028702;28;20463;-83
2023/08/16 05:02:44;;;;;;;7.57;3.63;;;;;;;;;;5028571;28;20450;-79
2023/08/16 05:05:11;;;;;;;6.70;4.30;;;;;;;;;;5030901;28;20455;-80
2023/08/16 05:07:39;;;;;;;7.63;2.80;;;;;;;;;;5021604;28;20459;-79
2023/08/16 05:10:07;;;;;;;8.50;3.60;;;;;;;;;;5029554;28;20511;-81
2023/08/16 05:12:36;;;;;;;9.60;3.07;;;;;;;;;;5026264;28;20447;-83
2023/08/16 05:15:04;;;;;;;6.73;2.90;;;;;;;;;;5026671;28;20467;-82
2023/08/16 05:17:31;;;;;;;8.87;3.10;;;;;;;;;;5028478;28;20467;-80
2023/08/16 05:19:59;;;;;;;6.00;2.50;;;;;;;;;;5027336;28;20459;-80
2023/08/16 05:22:27;;;;;;;5.03;2.77;;;;;;;;;;5026395;28;20926;-81
2023/08/16 05:24:54;;;;;;;6.37;2.60;;;;;;;;;;5029195;28;20498;-82
2023/08/16 05:27:22;;;;;;;6.77;3.40;;;;;;;;;;5030095;28;20443;-81
2023/08/16 05:29:51;;;;;;;6.37;2.53;;;;;;;;;;5021472;28;20550;-83
2023/08/16 05:32:19;;;;;;;7.80;3.20;;;;;;;;;;5022498;28;20456;-81
2023/08/16 05:34:46;;;;;;;4.90;3.27;;;;;;;;;;5021073;28;20486;-82
2023/08/16 05:37:14;;;;;;;4.10;2.83;;;;;;;;;;5028764;28;20446;-83
2023/08/16 05:39:41;;;;;;;8.30;3.43;;;;;;;;;;5027075;28;20450;-81
2023/08/16 05:42:10;;;;;;;8.30;4.23;;;;;;;;;;5024508;28;20450;-83
2023/08/16 05:44:37;;;;;;;6.00;3.27;;;;;;;;;;5024103;28;20530;-83
2023/08/16 05:47:06;;;;;;;6.70;2.67;;;;;;;;;;5026274;28;20451;-80
2023/08/16 05:49:34;;;;;;;7.10;2.93;;;;;;;;;;5022661;28;20439;-82
2023/08/16 05:52:01;;;;;;;7.33;3.00;;;;;;;;;;5023193;28;20462;-81
2023/08/16 05:54:29;;;;;;;8.90;3.40;;;;;;;;;;5018161;28;20483;-80
2023/08/16 05:56:57;;;;;;;5.47;2.60;;;;;;;;;;5018024;28;20530;-81
2023/08/16 05:59:24;;;;;;;5.43;3.00;;;;;;;;;;5018867;28;20451;-82
2023/08/16 06:01:52;;;;;;;12.03;3.17;;;;;;;;;;5023028;28;20462;-82
2023/08/16 06:04:20;;;;;;;7.67;3.73;;;;;;;;;;5023025;28;20458;-81
2023/08/16 06:06:49;;;;;;;7.67;3.90;;;;;;;;;;5023753;28;20459;-81
2023/08/16 06:09:16;;;;;;;6.20;3.20;;;;;;;;;;5024520;28;21042;-82
2023/08/16 06:11:44;;;;;;;7.33;3.37;;;;;;;;;;5022493;28;20447;-82
2023/08/16 06:14:16;;;;;;;14.70;3.90;;;;;;;;;;5021474;28;20480;-80
2023/08/16 06:16:43;;;;;;;14.03;4.80;;;;;;;;;;5021207;28;20458;-82
2023/08/16 06:19:13;;;;;;;5.70;3.00;;;;;;;;;;5021337;28;20531;-83
2023/08/16 06:21:42;;;;;;;9.37;3.67;;;;;;;;;;5020414;28;20473;-83
2023/08/16 06:24:10;;;;;;;5.90;3.73;;;;;;;;;;5023211;28;20502;-80
2023/08/16 06:26:37;;;;;;;7.50;3.40;;;;;;;;;;5022889;28;21012;-80
2023/08/16 06:29:05;;;;;;;10.30;4.10;;;;;;;;;;5021752;28;20822;-84
2023/08/16 06:31:32;;;;;;;10.10;4.23;;;;;;;;;;5020161;28;20447;-82
2023/08/16 06:34:02;;;;;;;8.20;3.60;;;;;;;;;;5021727;28;20479;-82
2023/08/16 06:36:29;;;;;;;9.03;4.80;;;;;;;;;;5020501;28;20447;-83
2023/08/16 06:38:59;;;;;;;9.07;4.20;;;;;;;;;;5020903;28;20455;-80
2023/08/16 06:41:27;;;;;;;9.17;4.77;;;;;;;;;;5018687;28;20443;-82
2023/08/16 06:43:55;;;;;;;8.20;3.87;;;;;;;;;;5019016;28;20684;-82
2023/08/16 06:46:22;;;;;;;10.70;4.20;;;;;;;;;;5020686;28;20451;-81
2023/08/16 06:48:50;;;;;;;10.67;3.83;;;;;;;;;;5022813;28;20530;-83
2023/08/16 06:51:17;;;;;;;11.03;4.13;;;;;;;;;;5019966;28;20458;-83
2023/08/16 06:53:45;;;;;;;7.83;3.70;;;;;;;;;;5022505;28;20546;-81
2023/08/16 06:56:14;;;;;;;9.60;3.53;;;;;;;;;;5014010;28;20446;-83
2023/08/16 06:58:42;;;;;;;5.47;3.40;;;;;;;;;;5015959;28;20487;-83
2023/08/16 07:01:09;;;;;;;10.50;3.80;;;;;;;;;;5018549;28;20911;-83
2023/08/16 07:03:37;;;;;;;4.83;2.80;;;;;;;;;;5017484;28;20526;-84
2023/08/16 07:06:05;;;;;;;7.80;3.17;;;;;;;;;;5017029;28;20497;-82
2023/08/16 07:08:33;;;;;;;7.30;4.40;;;;;;;;;;5023682;28;20875;-84
2023/08/16 07:11:00;;;;;;;10.97;3.00;;;;;;;;;;5018446;28;20447;-80
2023/08/16 07:13:29;;;;;;;9.30;2.87;;;;;;;;;;5021779;28;20482;-83
2023/08/16 07:15:57;;;;;;;8.60;2.80;;;;;;;;;;5027819;28;20455;-81
2023/08/16 07:18:25;;;;;;;11.20;3.30;;;;;;;;;;5023778;28;20626;-83
2023/08/16 07:20:52;;;;;;;8.90;3.00;;;;;;;;;;5020615;28;20910;-82
2023/08/16 07:23:20;;;;;;;7.20;3.03;;;;;;;;;;5011411;28;20467;-82
2023/08/16 07:25:48;;;;;;;8.30;3.13;;;;;;;;;;5008442;28;20869;-80
2023/08/16 07:28:15;;;;;;;9.83;3.30;;;;;;;;;;5020707;28;20497;-81
2023/08/16 07:30:44;;;;;;;11.20;4.33;;;;;;;;;;5025410;28;20467;-82
2023/08/16 07:33:12;;;;;;;6.97;3.20;;;;;;;;;;5026649;28;20543;-82
2023/08/16 07:35:39;;;;;;;9.83;3.00;;;;;;;;;;5027102;28;20451;-82
2023/08/16 07:38:07;;;;;;;10.47;3.03;;;;;;;;;;5027294;28;20439;-80
2023/08/16 07:40:34;;;;;;;10.30;3.30;;;;;;;;;;5022537;28;20459;-80
2023/08/16 07:43:02;;;;;;;7.53;3.37;;;;;;;;;;5026863;28;20985;-81
2023/08/16 07:45:30;;;;;;;9.80;3.80;;;;;;;;;;5026144;28;20455;-80
2023/08/16 07:48:02;;;;;;;11.37;6.17;;;;;;;;;;5028997;28;20455;-81
2023/08/16 07:50:29;;;;;;;9.03;3.57;;;;;;;;;;5028488;28;20542;-82
2023/08/16 07:52:57;;;;;;;5.87;3.13;;;;;;;;;;5021929;28;20486;-83
2023/08/16 07:55:29;;;;;;;11.73;4.73;;;;;;;;;;5020729;28;20501;-81
2023/08/16 07:57:57;;;;;;;5.97;3.10;;;;;;;;;;5018934;28;20489;-81
2023/08/16 08:00:24;;;;;;;12.20;3.13;;;;;;;;;;5004875;28;20452;-80
2023/08/16 08:02:53;;;;;;;5.83;2.60;;;;;;;;;;5008693;28;20480;-83
2023/08/16 08:05:22;;;;;;;6.20;3.20;;;;;;;;;;5008524;28;20452;-81
2023/08/16 08:07:50;;;;;;;7.40;2.60;;;;;;;;;;5024812;28;20447;-82
2023/08/16 08:10:18;;;;;;;5.03;2.43;;;;;;;;;;5026646;28;20438;-83
2023/08/16 08:12:46;;;;;;;6.50;2.00;;;;;;;;;;5023660;28;21200;-81
2023/08/16 08:15:14;;;;;;;7.97;3.00;;;;;;;;;;5024529;28;20487;-82
2023/08/16 08:17:44;;;;;;;6.30;2.73;;;;;;;;;;5024478;28;20715;-80
2023/08/16 08:20:17;;;;;;;8.47;2.93;;;;;;;;;;5028528;28;20537;-81
2023/08/16 08:22:46;;;;;;;8.73;2.47;;;;;;;;;;5021972;28;20603;-79
2023/08/16 08:25:14;;;;;;;7.47;2.77;;;;;;;;;;5022733;28;20465;-82
2023/08/16 08:27:42;;;;;;;7.67;2.90;;;;;;;;;;5026584;28;20846;-80
2023/08/16 08:30:11;;;;;;;7.40;2.13;;;;;;;;;;5025688;28;20509;-79
2023/08/16 08:32:38;;;;;;;6.03;2.53;;;;;;;;;;5022975;28;20897;-82
2023/08/16 08:35:09;;;;;;;5.10;2.33;;;;;;;;;;5023780;28;20471;-82
2023/08/16 08:37:38;;;;;;;9.03;2.07;;;;;;;;;;5024150;28;20463;-80
2023/08/16 08:40:11;;;;;;;12.90;2.90;;;;;;;;;;5022502;28;20467;-80
2023/08/16 08:42:39;;;;;;;7.97;2.90;;;;;;;;;;5024148;28;20470;-82
2023/08/16 08:45:10;;;;;;;10.40;2.57;;;;;;;;;;5024944;28;20480;-78
2023/08/16 08:47:38;;;;;;;5.73;2.37;;;;;;;;;;5026619;28;20458;-81
2023/08/16 08:50:09;;;;;;;8.73;2.47;;;;;;;;;;5015907;28;20499;-79
2023/08/16 08:52:38;;;;;;;8.60;2.00;;;;;;;;;;5014745;28;20470;-81
2023/08/16 08:55:08;;;;;;;4.60;1.93;;;;;;;;;;5023012;28;20495;-80
2023/08/16 08:57:39;;;;;;;6.73;1.83;;;;;;;;;;5021843;28;20459;-81
2023/08/16 09:00:14;;;;;;;5.80;2.80;;;;;;;;;;5010475;28;20477;-81
2023/08/16 09:02:44;;;;;;;13.10;2.43;;;;;;;;;;5025314;28;20455;-80
2023/08/16 09:05:12;;;;;;;6.53;1.90;;;;;;;;;;5023462;28;20494;-81
2023/08/16 09:07:41;;;;;;;8.77;2.20;;;;;;;;;;5006736;28;20476;-83
2023/08/16 09:10:09;;;;;;;7.77;2.00;;;;;;;;;;5021381;28;21110;-80
2023/08/16 09:12:42;;;;;;;5.50;2.00;;;;;;;;;;5025926;28;20491;-83
2023/08/16 09:15:10;;;;;;;6.67;2.13;;;;;;;;;;5027759;28;20551;-82
2023/08/16 09:17:38;;;;;;;5.70;2.00;;;;;;;;;;5026723;28;20451;-79
2023/08/16 09:20:09;;;;;;;6.90;2.67;;;;;;;;;;5027512;28;20523;-81
2023/08/16 09:22:39;;;;;;;5.73;2.20;;;;;;;;;;5023053;28;20499;-80
2023/08/16 09:25:12;;;;;;;3.97;1.80;;;;;;;;;;5022201;28;21050;-83
2023/08/16 09:27:43;;;;;;;7.37;2.40;;;;;;;;;;5027001;28;20533;-82
2023/08/16 09:30:17;;;;;;;2.93;1.83;;;;;;;;;;5027447;28;20520;-79
2023/08/16 09:32:45;;;;;;;3.27;1.93;;;;;;;;;;5020374;28;20594;-83
2023/08/16 09:35:21;;;;;;;7.83;3.10;;;;;;;;;;5021505;28;20491;-80
2023/08/16 09:37:57;;;;;;;7.20;2.17;;;;;;;;;;5009636;28;20482;-81
2023/08/16 09:40:25;;;;;;;5.33;2.50;;;;;;;;;;5022767;28;20455;-79
2023/08/16 09:43:03;;;;;;;10.63;4.43;;;;;;;;;;5017550;28;20753;-79
2023/08/16 09:45:33;;;;;;;7.60;2.80;;;;;;;;;;5022988;28;20478;-82
2023/08/16 09:48:04;;;;;;;4.97;2.00;;;;;;;;;;5022182;28;20482;-80
2023/08/16 09:50:35;;;;;;;8.50;3.07;;;;;;;;;;5022070;28;20463;-80
2023/08/16 09:53:04;;;;;;;4.27;2.10;;;;;;;;;;5025028;28;20479;-80
2023/08/16 09:55:35;;;;;;;7.60;2.40;;;;;;;;;;5024563;28;20490;-81
2023/08/16 09:58:07;;;;;;;5.93;2.83;;;;;;;;;;5023865;28;20453;-83
2023/08/16 10:00:35;;;;;;;4.77;2.93;;;;;;;;;;5025093;28;20524;-81
2023/08/16 10:03:03;;;;;;;4.00;2.40;;;;;;;;;;5021798;28;21148;-80
2023/08/16 10:05:33;;;;;;;3.47;2.30;;;;;;;;;;5023374;28;20506;-81
2023/08/16 10:08:00;;;;;;;8.43;1.97;;;;;;;;;;5022889;28;20552;-80
2023/08/16 10:10:28;;;;;;;5.17;2.17;;;;;;;;;;5024694;28;20467;-78
2023/08/16 10:12:56;;;;;;;5.63;2.27;;;;;;;;;;5022940;28;20487;-80
2023/08/16 10:15:25;;;;;;;5.27;1.60;;;;;;;;;;5022506;28;20483;-78
2023/08/16 10:17:54;;;;;;;6.50;2.17;;;;;;;;;;5022340;28;20529;-80
2023/08/16 10:20:23;;;;;;;7.57;2.27;;;;;;;;;;5019848;28;20469;-81
2023/08/16 10:22:53;;;;;;;7.87;2.50;;;;;;;;;;5025766;28;20444;-83
2023/08/16 10:25:23;;;;;;;4.57;2.23;;;;;;;;;;5022929;28;20443;-80
2023/08/16 10:27:51;;;;;;;6.50;2.10;;;;;;;;;;5022116;28;20463;-79
2023/08/16 10:30:21;;;;;;;5.17;1.80;;;;;;;;;;5024959;28;20934;-80
2023/08/16 10:32:56;;;;;;;7.50;2.23;;;;;;;;;;5020448;28;20751;-83
2023/08/16 10:35:32;;;;;;;7.13;2.70;;;;;;;;;;5020423;28;20486;-84
2023/08/16 10:37:59;;;;;;;7.27;3.07;;;;;;;;;;5020399;28;20467;-83
2023/08/16 10:40:27;;;;;;;4.57;2.10;;;;;;;;;;5021421;28;20637;-82
2023/08/16 10:42:56;;;;;;;5.03;2.20;;;;;;;;;;5019739;28;20523;-80
2023/08/16 10:45:28;;;;;;;6.20;2.20;;;;;;;;;;5022988;28;20451;-82
2023/08/16 10:47:56;;;;;;;4.57;2.17;;;;;;;;;;5023660;28;20746;-82
2023/08/16 10:50:35;;;;;;;5.77;1.70;;;;;;;;;;5023852;28;20461;-81
2023/08/16 10:53:03;;;;;;;5.10;2.40;;;;;;;;;;5020495;28;20455;-81
2023/08/16 10:55:31;;;;;;;5.33;2.23;;;;;;;;;;5021760;28;20483;-80
2023/08/16 10:57:59;;;;;;;4.70;2.30;;;;;;;;;;5022481;28;20462;-82
2023/08/16 11:00:32;;;;;;;7.50;2.37;;;;;;;;;;5022638;28;20467;-83
2023/08/16 11:03:03;;;;;;;6.23;2.03;;;;;;;;;;5023302;28;20462;-83
2023/08/16 11:05:41;;;;;;;4.10;2.17;;;;;;;;;;5020665;28;20467;-80
2023/08/16 11:08:13;;;;;;;4.47;1.80;;;;;;;;;;5018105;28;20510;-81
2023/08/16 11:10:41;;;;;;;6.87;2.40;;;;;;;;;;5022891;28;20468;-79
2023/08/16 11:13:11;;;;;;;7.20;3.20;;;;;;;;;;5023555;28;20463;-83
2023/08/16 11:15:47;;;;;;;6.53;2.87;;;;;;;;;;5022798;28;20479;-82
2023/08/16 11:18:14;;;;;;;19.13;14.20;;;;;;;;;;5021598;28;20536;-82
2023/08/16 11:20:42;;;;;;;4.70;2.23;;;;;;;;;;5024476;28;20534;-83
2023/08/16 11:23:10;;;;;;;3.10;1.50;;;;;;;;;;5018733;28;20536;-81
2023/08/16 11:25:40;;;;;;;4.73;1.90;;;;;;;;;;5016262;28;20463;-81
2023/08/16 11:28:08;;;;;;;3.37;1.67;;;;;;;;;;5022981;28;20536;-81
2023/08/16 11:30:41;;;;;;;6.10;2.03;;;;;;;;;;5032011;28;20447;-82
2023/08/16 11:33:15;;;;;;;4.50;2.03;;;;;;;;;;5025185;28;20961;-84
2023/08/16 11:35:44;;;;;;;5.23;2.33;;;;;;;;;;5022613;28;20488;-80
2023/08/16 11:38:15;;;;;;;4.00;1.83;;;;;;;;;;5022570;28;20476;-81
2023/08/16 11:40:49;;;;;;;7.87;2.60;;;;;;;;;;5019917;28;20466;-82
2023/08/16 11:43:20;;;;;;;6.57;1.93;;;;;;;;;;5026594;28;20482;-81
2023/08/16 11:45:52;;;;;;;4.73;1.93;;;;;;;;;;5028894;28;20498;-81
2023/08/16 11:48:24;;;;;;;4.17;2.47;;;;;;;;;;5025554;28;20443;-79
2023/08/16 11:50:53;;;;;;;5.50;2.30;;;;;;;;;;5022738;28;20467;-81
2023/08/16 11:53:22;;;;;;;3.80;2.10;;;;;;;;;;5023507;28;20547;-81
2023/08/16 11:56:00;;;;;;;5.70;2.70;;;;;;;;;;5023902;28;20690;-81
2023/08/16 11:58:28;;;;;;;5.90;2.00;;;;;;;;;;5013135;28;20831;-82
2023/08/16 12:00:56;;;;;;;2.90;1.40;;;;;;;;;;5021839;28;21231;-80
2023/08/16 12:03:33;;;;;;;3.87;1.77;;;;;;;;;;5025731;28;20500;-81
2023/08/16 12:06:08;;;;;;;5.93;1.93;;;;;;;;;;5022996;28;20529;-82
2023/08/16 12:08:36;;;;;;;3.67;1.50;;;;;;;;;;5019839;28;20482;-81
2023/08/16 12:11:06;;;;;;;3.00;1.50;;;;;;;;;;5023289;28;20452;-81
2023/08/16 12:13:36;;;;;;;4.03;2.07;;;;;;;;;;5021337;28;20467;-79
2023/08/16 12:16:04;;;;;;;4.10;2.10;;;;;;;;;;5022412;28;21072;-79
2023/08/16 12:18:33;;;;;;;4.07;1.80;;;;;;;;;;5023717;28;20460;-82
2023/08/16 12:21:02;;;;;;;4.53;1.50;;;;;;;;;;5013276;28;20459;-81
2023/08/16 12:23:33;;;;;;;5.57;2.63;;;;;;;;;;5024252;28;20486;-82
2023/08/16 12:26:05;;;;;;;4.30;2.10;;;;;;;;;;5026353;28;20468;-80
2023/08/16 12:28:39;;;;;;;4.80;3.10;;;;;;;;;;5023672;28;20467;-81
2023/08/16 12:31:07;;;;;;;5.20;2.67;;;;;;;;;;5024281;28;20447;-82
2023/08/16 12:33:36;;;;;;;3.63;1.70;;;;;;;;;;5024428;28;20498;-83
2023/08/16 12:36:04;;;;;;;7.40;4.50;;;;;;;;;;5007903;28;20495;-82
2023/08/16 12:38:32;;;;;;;6.63;2.00;;;;;;;;;;5022734;28;20498;-84
2023/08/16 12:41:02;;;;;;;3.53;1.50;;;;;;;;;;5026114;28;20481;-79
2023/08/16 12:43:30;;;;;;;3.40;1.47;;;;;;;;;;5022744;28;20494;-79
2023/08/16 12:46:05;;;;;;;5.20;1.70;;;;;;;;;;5024865;28;20487;-82
2023/08/16 12:48:39;;;;;;;5.30;3.60;;;;;;;;;;5021478;28;20542;-84
2023/08/16 12:51:14;;;;;;;4.57;3.03;;;;;;;;;;5022493;28;20749;-84
2023/08/16 12:53:46;;;;;;;4.40;1.60;;;;;;;;;;5021902;28;20939;-82
2023/08/16 12:56:14;;;;;;;4.50;2.00;;;;;;;;;;5020468;28;20494;-83
2023/08/16 12:58:42;;;;;;;7.17;1.50;;;;;;;;;;5022301;28;20455;-79
2023/08/16 13:01:11;;;;;;;5.47;1.87;;;;;;;;;;5022621;28;20447;-79
2023/08/16 13:03:40;;;;;;;3.03;1.50;;;;;;;;;;5021136;28;20593;-79
2023/08/16 13:06:11;;;;;;;4.30;1.90;;;;;;;;;;5026259;28;20457;-79
2023/08/16 13:08:43;;;;;;;7.60;1.80;;;;;;;;;;5013559;28;20483;-78
2023/08/16 13:11:12;;;;;;;4.50;2.27;;;;;;;;;;5004091;28;20495;-81
2023/08/16 13:13:40;;;;;;;6.00;1.97;;;;;;;;;;5010897;28;20476;-80
2023/08/16 13:16:10;;;;;;;7.03;2.60;;;;;;;;;;4990445;28;20557;-82
2023/08/16 13:18:40;;;;;;;3.80;1.70;;;;;;;;;;5005868;28;20490;-80
2023/08/16 13:21:08;;;;;;;5.73;1.77;;;;;;;;;;5014362;28;20463;-80
2023/08/16 13:23:37;;;;;;;5.30;2.70;;;;;;;;;;4998904;28;20676;-80
2023/08/16 13:26:04;;;;;;;3.97;1.83;;;;;;;;;;5004233;28;20488;-80
2023/08/16 13:28:32;;;;;;;6.30;5.03;;;;;;;;;;5004928;28;20452;-82
2023/08/16 13:30:59;;;;;;;3.93;2.20;;;;;;;;;;5017398;28;20466;-78
2023/08/16 13:33:27;;;;;;;5.33;2.00;;;;;;;;;;5007938;28;20456;-80
2023/08/16 13:35:58;;;;;;;4.87;1.63;;;;;;;;;;5006737;28;20571;-80
2023/08/16 13:38:25;;;;;;;2.63;1.37;;;;;;;;;;5003555;28;20452;-82
2023/08/16 13:40:53;;;;;;;3.23;1.30;;;;;;;;;;5004728;28;20463;-81
2023/08/16 13:43:38;;;;;;;4.43;1.40;;;;;;;;;;4999233;28;20470;-79
2023/08/16 13:46:33;;;;;;;7.67;1.60;;;;;;;;;;5004392;28;20432;-80
2023/08/16 13:49:28;;;;;;;5.33;1.50;;;;;;;;;;5005330;28;20443;-80
2023/08/16 13:52:23;;;;;;;3.03;1.07;;;;;;;;;;4999114;28;20486;-79
2023/08/16 13:54:51;;;;;;;4.50;1.40;;;;;;;;;;4995862;28;20479;-79
2023/08/16 13:57:19;;;;;;;4.77;1.47;;;;;;;;;;5005033;28;20480;-81
2023/08/16 13:59:47;;;;;;;3.73;1.10;;;;;;;;;;5003763;28;20725;-79
2023/08/16 14:02:15;;;;;;;3.33;1.90;;;;;;;;;;4999430;28;20476;-81
2023/08/16 14:04:43;;;;;;;3.30;1.10;;;;;;;;;;5000777;28;20517;-80
2023/08/16 14:07:12;;;;;;;6.73;1.70;;;;;;;;;;5007586;28;20555;-79
2023/08/16 14:12:25;;;;;;;2.83;1.10;;;;;;;;;;5015103;28;20498;-77
2023/08/16 14:14:52;;;;;;;3.73;1.13;;;;;;;;;;5017252;28;20597;-79
2023/08/16 14:17:21;;;;;;;4.10;2.53;;;;;;;;;;5024579;28;20682;-82
2023/08/16 14:19:48;;;;;;;6.33;1.80;;;;;;;;;;5020457;28;20879;-80
2023/08/16 14:22:18;;;;;;;3.90;1.90;;;;;;;;;;5022684;28;20459;-79
2023/08/16 14:24:47;;;;;;;5.27;1.87;;;;;;;;;;5024005;28;20456;-78
2023/08/16 14:27:15;;;;;;;3.47;1.90;;;;;;;;;;5026889;28;20460;-80
2023/08/16 14:29:43;;;;;;;4.30;1.50;;;;;;;;;;5021774;28;20452;-79
2023/08/16 14:32:16;;;;;;;4.27;2.70;;;;;;;;;;5020799;28;20547;-78
2023/08/16 14:34:43;;;;;;;9.03;2.57;;;;;;;;;;5021880;28;20443;-81
2023/08/16 14:37:11;;;;;;;4.17;1.60;;;;;;;;;;5021879;28;20502;-81
2023/08/16 14:39:40;;;;;;;5.97;2.20;;;;;;;;;;5021972;28;20463;-81
2023/08/16 14:42:08;;;;;;;3.17;1.73;;;;;;;;;;5018541;28;20910;-80
2023/08/16 14:44:37;;;;;;;5.63;1.57;;;;;;;;;;5023565;28;20506;-80
2023/08/16 14:47:06;;;;;;;6.60;1.73;;;;;;;;;;5025613;28;20423;-80
2023/08/16 14:49:35;;;;;;;5.87;2.80;;;;;;;;;;5022722;28;20462;-80
2023/08/16 14:52:04;;;;;;;8.17;2.00;;;;;;;;;;5023049;28;20459;-81
2023/08/16 14:54:33;;;;;;;3.60;1.50;;;;;;;;;;5023716;28;20961;-80
2023/08/16 14:57:02;;;;;;;4.63;1.37;;;;;;;;;;5017062;28;20484;-81